createdAt,value
2022-11-21T00:01:40.782Z,99976.84
2022-11-21T00:04:43.280Z,99994.28
2022-11-21T00:07:46.159Z,99979.94
2022-11-21T00:10:48.899Z,99957.03
2022-11-21T00:13:51.352Z,99979.44
2022-11-21T00:16:57.372Z,99963.81
2022-11-21T00:20:00.110Z,99975.78
2022-11-21T00:23:02.952Z,99976.31
2022-11-21T00:26:06.758Z,100005.50
2022-11-21T00:29:09.576Z,99983.63
2022-11-21T00:32:12.027Z,99990.91
2022-11-21T00:35:14.457Z,99987.22
2022-11-21T00:38:16.953Z,99986.16
2022-11-21T00:41:19.465Z,99994.44
2022-11-21T00:44:21.900Z,100005.88
2022-11-21T00:47:24.387Z,100003.50
2022-11-21T00:50:26.784Z,99996.78
2022-11-21T00:53:29.881Z,99982.72
2022-11-21T00:56:32.316Z,99986.84
2022-11-21T00:59:34.792Z,99956.13
2022-11-21T01:02:37.213Z,99956.34
2022-11-21T01:05:39.741Z,99968.84
2022-11-21T01:08:43.679Z,99972.94
2022-11-21T01:11:46.122Z,99946.09
2022-11-21T01:14:48.797Z,99945.81
2022-11-21T01:17:51.196Z,99952.81
2022-11-21T01:20:53.592Z,99950.97
2022-11-21T01:23:56.356Z,99933.59
2022-11-21T01:26:58.897Z,99942.91
2022-11-21T01:30:01.371Z,99942.69
2022-11-21T01:33:03.772Z,99923.72
2022-11-21T01:36:14.004Z,99944.03
2022-11-21T01:39:16.540Z,99938.28
2022-11-21T01:42:18.961Z,99930.00
2022-11-21T01:45:49.286Z,99941.00
2022-11-21T01:48:56.091Z,99933.50
2022-11-21T01:51:58.457Z,99927.50
2022-11-21T01:55:08.155Z,99903.59
2022-11-21T01:58:11.078Z,99904.09
2022-11-21T02:01:13.766Z,99903.25
2022-11-21T02:04:16.986Z,99900.84
2022-11-21T02:07:21.455Z,99905.56
2022-11-21T02:10:24.178Z,99884.22
2022-11-21T02:13:26.850Z,99905.81
2022-11-21T02:16:29.577Z,99880.91
2022-11-21T02:19:55.832Z,99896.31
2022-11-21T02:23:19.458Z,99904.63
2022-11-21T02:26:21.937Z,99890.84
2022-11-21T02:29:24.484Z,99870.81
2022-11-21T02:32:34.217Z,99865.09
2022-11-21T02:35:36.805Z,99862.75
2022-11-21T02:38:39.455Z,99872.19
2022-11-21T02:41:48.962Z,99881.00
2022-11-21T02:45:14.170Z,99883.34
2022-11-21T02:48:16.653Z,99868.22
2022-11-21T02:51:19.079Z,99861.44
2022-11-21T02:54:21.554Z,99864.84
2022-11-21T02:57:23.968Z,99858.34
2022-11-21T03:00:26.445Z,99877.59
2022-11-21T03:03:28.902Z,99854.13
2022-11-21T03:06:31.310Z,99883.00
2022-11-21T03:09:33.776Z,99874.94
2022-11-21T03:12:40.095Z,99851.38
2022-11-21T03:15:42.570Z,99865.94
2022-11-21T03:18:45.139Z,99861.44
2022-11-21T03:21:47.551Z,99868.53
2022-11-21T03:24:49.906Z,99836.00
2022-11-21T03:27:56.006Z,99843.50
2022-11-21T03:30:58.482Z,99854.16
2022-11-21T03:34:00.995Z,99871.66
2022-11-21T03:37:03.874Z,99876.91
2022-11-21T03:40:07.141Z,99857.91
2022-11-21T03:43:09.695Z,99849.00
2022-11-21T03:46:12.070Z,99862.31
2022-11-21T03:49:16.673Z,99846.16
2022-11-21T03:52:19.140Z,99870.34
2022-11-21T03:55:21.913Z,99856.56
2022-11-21T03:58:24.311Z,99847.44
2022-11-21T04:01:26.754Z,99866.72
2022-11-21T04:04:29.580Z,99860.28
2022-11-21T04:07:32.336Z,99858.72
2022-11-21T04:10:34.842Z,99834.81
2022-11-21T04:13:37.801Z,99835.03
2022-11-21T04:16:40.265Z,99835.47
2022-11-21T04:19:42.703Z,99834.66
2022-11-21T04:22:45.257Z,99843.50
2022-11-21T04:25:47.701Z,99840.63
2022-11-21T04:28:50.193Z,99840.63
2022-11-21T04:31:52.588Z,99823.94
2022-11-21T04:34:54.989Z,99843.63
2022-11-21T04:37:57.402Z,99828.00
2022-11-21T04:40:59.917Z,99811.91
2022-11-21T04:44:02.313Z,99829.31
2022-11-21T04:47:05.723Z,99807.75
2022-11-21T04:50:09.837Z,99806.47
2022-11-21T04:53:12.335Z,99795.09
2022-11-21T04:56:16.642Z,99818.31
2022-11-21T04:59:19.452Z,99805.63
2022-11-21T05:02:22.405Z,99801.19
2022-11-21T05:05:24.818Z,99763.75
2022-11-21T05:08:27.313Z,99799.03
2022-11-21T05:11:48.330Z,99788.00
2022-11-21T05:14:50.741Z,99797.38
2022-11-21T05:17:53.222Z,99773.72
2022-11-21T05:20:55.731Z,99791.16
2022-11-21T05:23:58.259Z,99769.56
2022-11-21T05:27:00.659Z,99772.50
2022-11-21T05:30:03.265Z,99778.50
2022-11-21T05:33:05.789Z,99796.97
2022-11-21T05:36:08.229Z,99781.84
2022-11-21T05:39:10.649Z,99808.59
2022-11-21T05:42:13.018Z,99764.09
2022-11-21T05:45:15.517Z,99777.41
2022-11-21T05:48:18.403Z,99781.50
2022-11-21T05:51:21.879Z,99783.78
2022-11-21T05:54:24.236Z,99793.44
2022-11-21T05:57:26.653Z,99774.97
2022-11-21T06:00:29.372Z,99776.72
2022-11-21T06:03:34.481Z,99773.84
2022-11-21T06:06:37.375Z,99790.03
2022-11-21T06:09:39.842Z,99790.84
2022-11-21T06:12:42.233Z,99782.25
2022-11-21T06:15:44.654Z,99794.00
2022-11-21T06:18:50.026Z,99780.72
2022-11-21T06:21:54.096Z,99809.13
2022-11-21T06:24:56.575Z,99822.09
2022-11-21T06:28:01.888Z,99809.34
2022-11-21T06:31:08.589Z,99825.81
2022-11-21T06:34:10.942Z,99830.84
2022-11-21T06:37:13.381Z,99807.47
2022-11-21T06:40:15.919Z,99805.66
2022-11-21T06:43:18.367Z,99816.31
2022-11-21T06:46:20.857Z,99816.09
2022-11-21T06:49:23.350Z,99821.81
2022-11-21T06:52:25.848Z,99843.69
2022-11-21T06:55:29.854Z,99837.69
2022-11-21T06:58:32.434Z,99837.69
2022-11-21T07:01:35.003Z,99824.91
2022-11-21T07:04:37.575Z,99814.78
2022-11-21T07:07:41.077Z,99815.34
2022-11-21T07:11:10.184Z,99833.53
2022-11-21T07:14:10.795Z,99821.53
2022-11-21T07:17:15.915Z,99813.75
2022-11-21T07:20:18.623Z,99825.47
2022-11-21T07:23:21.049Z,99830.91
2022-11-21T07:26:24.459Z,99823.34
2022-11-21T07:29:27.368Z,99807.44
2022-11-21T07:32:30.094Z,99826.19
2022-11-21T07:35:33.306Z,99804.88
2022-11-21T07:38:35.895Z,99793.16
2022-11-21T07:41:38.668Z,99800.09
2022-11-21T07:44:41.161Z,99796.16
2022-11-21T07:47:43.650Z,99777.75
2022-11-21T07:50:46.231Z,99787.53
2022-11-21T07:53:48.698Z,99787.44
2022-11-21T07:56:51.204Z,99779.91
2022-11-21T07:59:54.257Z,99779.41
2022-11-21T08:02:57.103Z,99767.94
2022-11-21T08:06:04.078Z,99758.00
2022-11-21T08:09:07.822Z,99763.47
2022-11-21T08:12:11.553Z,99756.44
2022-11-21T08:15:14.112Z,99753.22
2022-11-21T08:18:20.957Z,99766.75
2022-11-21T08:21:23.331Z,99771.47
2022-11-21T08:24:26.077Z,99750.91
2022-11-21T08:27:31.508Z,99741.84
2022-11-21T08:30:34.361Z,99756.06
2022-11-21T08:33:37.061Z,99741.50
2022-11-21T08:36:39.626Z,99753.19
2022-11-21T08:39:42.324Z,99761.44
2022-11-21T08:42:45.057Z,99766.84
2022-11-21T08:45:47.526Z,99777.19
2022-11-21T08:48:50.552Z,99791.28
2022-11-21T08:51:53.438Z,99802.47
2022-11-21T08:54:56.161Z,99791.88
2022-11-21T08:57:59.602Z,99794.41
2022-11-21T09:01:02.360Z,99773.81
2022-11-21T09:04:05.853Z,99808.44
2022-11-21T09:07:08.437Z,99796.66
2022-11-21T09:10:11.939Z,99782.63
2022-11-21T09:13:15.093Z,99765.09
2022-11-21T09:16:35.844Z,99795.38
2022-11-21T09:19:38.569Z,99760.19
2022-11-21T09:22:41.894Z,99790.25
2022-11-21T09:25:45.010Z,99772.78
2022-11-21T09:28:47.603Z,99790.81
2022-11-21T09:31:50.225Z,99767.28
2022-11-21T09:34:52.651Z,99775.72
2022-11-21T09:37:55.142Z,99778.22
2022-11-21T09:41:32.576Z,99777.44
2022-11-21T09:45:04.119Z,99770.00
2022-11-21T09:48:13.004Z,99769.28
2022-11-21T09:51:17.563Z,99746.19
2022-11-21T09:54:27.053Z,99745.69
2022-11-21T09:57:34.786Z,99732.69
2022-11-21T10:00:37.605Z,99739.81
2022-11-21T10:03:43.814Z,99749.69
2022-11-21T10:06:52.656Z,99732.78
2022-11-21T10:10:18.395Z,99732.44
2022-11-21T10:13:43.410Z,99728.28
2022-11-21T10:17:12.229Z,99715.88
2022-11-21T10:20:14.875Z,99707.13
2022-11-21T10:23:38.475Z,99708.97
2022-11-21T10:27:03.082Z,99723.19
2022-11-21T10:30:07.502Z,99694.13
2022-11-21T10:33:16.198Z,99704.13
2022-11-21T10:36:34.731Z,99713.41
2022-11-21T10:39:49.333Z,99699.50
2022-11-21T10:43:20.992Z,99717.59
2022-11-21T10:46:23.792Z,99714.25
2022-11-21T10:49:29.822Z,99716.28
2022-11-21T10:52:36.459Z,99708.50
2022-11-21T10:55:56.676Z,99700.47
2022-11-21T10:58:59.810Z,99708.66
2022-11-21T11:02:24.309Z,99717.50
2022-11-21T11:05:28.759Z,99721.28
2022-11-21T11:08:50.551Z,99716.03
2022-11-21T11:11:53.104Z,99711.81
2022-11-21T11:14:56.577Z,99717.47
2022-11-21T11:18:09.023Z,99717.44
2022-11-21T11:21:19.418Z,99724.59
2022-11-21T11:24:29.458Z,99697.25
2022-11-21T11:27:32.192Z,99727.06
2022-11-21T11:30:38.234Z,99720.28
2022-11-21T11:33:50.473Z,99714.25
2022-11-21T11:37:15.271Z,99689.97
2022-11-21T11:40:37.534Z,99705.94
2022-11-21T11:44:22.575Z,99690.78
2022-11-21T11:47:30.905Z,99694.63
2022-11-21T11:50:57.995Z,99685.50
2022-11-21T11:54:09.345Z,99690.59
2022-11-21T11:57:17.730Z,99687.34
2022-11-21T12:00:31.171Z,99690.47
2022-11-21T12:03:58.095Z,99686.44
2022-11-21T12:11:25.383Z,99688.88
2022-11-21T12:14:52.463Z,99656.53
2022-11-21T12:18:13.913Z,99689.81
2022-11-21T12:21:20.709Z,99679.09
2022-11-21T12:24:23.309Z,99669.19
2022-11-21T12:27:31.845Z,99676.31
2022-11-21T12:30:50.255Z,99676.47
2022-11-21T12:34:04.494Z,99668.91
2022-11-21T12:37:38.752Z,99682.25
2022-11-21T12:40:44.462Z,99681.94
2022-11-21T12:43:57.396Z,99672.97
2022-11-21T12:47:58.365Z,99674.97
2022-11-21T12:51:25.506Z,99679.63
2022-11-21T12:55:17.328Z,99672.41
2022-11-21T12:58:31.245Z,99667.94
2022-11-21T13:01:46.588Z,99655.75
2022-11-21T13:04:50.160Z,99671.81
2022-11-21T13:08:01.451Z,99660.06
2022-11-21T13:11:31.169Z,99670.22
2022-11-21T13:14:40.148Z,99671.50
2022-11-21T13:17:47.456Z,99664.84
2022-11-21T13:20:51.508Z,99665.19
2022-11-21T13:23:53.973Z,99657.00
2022-11-21T13:26:56.956Z,99670.59
2022-11-21T13:30:11.455Z,99659.63
2022-11-21T13:33:35.641Z,99661.03
2022-11-21T13:36:39.256Z,99659.34
2022-11-21T13:39:41.722Z,99661.69
2022-11-21T13:43:32.031Z,99659.84
2022-11-21T13:47:00.900Z,99662.78
2022-11-21T13:50:20.600Z,99663.97
2022-11-21T13:53:38.359Z,99669.53
2022-11-21T13:56:59.080Z,99629.09
2022-11-21T14:00:19.904Z,99660.97
2022-11-21T14:03:45.378Z,99664.66
2022-11-21T14:06:48.415Z,99657.22
2022-11-21T14:09:56.190Z,99657.19
2022-11-21T14:12:58.902Z,99660.06
2022-11-21T14:16:23.953Z,99680.97
2022-11-21T14:19:27.584Z,99664.78
2022-11-21T14:23:07.498Z,99674.66
2022-11-21T14:26:20.183Z,99672.53
2022-11-21T14:29:32.584Z,99673.88
2022-11-21T14:32:35.090Z,99670.41
2022-11-21T14:35:39.950Z,99660.44
2022-11-21T14:38:47.551Z,99673.06
2022-11-21T14:41:55.863Z,99660.47
2022-11-21T14:45:16.578Z,99671.09
2022-11-21T14:48:29.356Z,99661.00
2022-11-21T14:51:31.937Z,99666.31
2022-11-21T14:54:59.941Z,99674.16
2022-11-21T14:58:06.180Z,99685.63
2022-11-21T15:01:25.902Z,99675.91
2022-11-21T15:04:31.993Z,99686.41
2022-11-21T15:07:45.548Z,99654.00
2022-11-21T15:10:48.151Z,99691.81
2022-11-21T15:17:20.597Z,99690.88
2022-11-21T15:20:23.523Z,99670.91
2022-11-21T15:23:38.467Z,99687.03
2022-11-21T15:26:41.227Z,99691.22
2022-11-21T15:29:43.653Z,99683.31
2022-11-21T15:33:01.820Z,99707.75
2022-11-21T15:36:13.988Z,99696.38
2022-11-21T15:39:21.986Z,99688.94
2022-11-21T15:42:42.517Z,99709.19
2022-11-21T15:45:46.984Z,99692.69
2022-11-21T15:48:53.834Z,99710.59
2022-11-21T15:52:11.530Z,99696.41
2022-11-21T15:55:20.080Z,99687.81
2022-11-21T15:58:22.774Z,99705.06
2022-11-21T16:01:27.580Z,99673.56
2022-11-21T16:04:30.176Z,99704.78
2022-11-21T16:07:32.690Z,99699.81
2022-11-21T16:10:36.247Z,99709.97
2022-11-21T16:13:38.706Z,99712.94
2022-11-21T16:16:43.517Z,99708.56
2022-11-21T16:19:46.142Z,99696.34
2022-11-21T16:22:50.006Z,99688.19
2022-11-21T16:25:55.484Z,99700.47
2022-11-21T16:28:58.983Z,99701.72
2022-11-21T16:32:01.524Z,99705.09
2022-11-21T16:35:04.733Z,99689.47
2022-11-21T16:38:11.349Z,99708.69
2022-11-21T16:41:14.068Z,99711.25
2022-11-21T16:44:16.712Z,99687.47
2022-11-21T16:47:19.122Z,99688.41
2022-11-21T16:50:22.111Z,99712.03
2022-11-21T16:53:24.759Z,99716.56
2022-11-21T16:56:27.644Z,99718.13
2022-11-21T16:59:31.535Z,99713.56
2022-11-21T17:02:34.391Z,99727.81
2022-11-21T17:05:36.874Z,99719.72
2022-11-21T17:08:39.591Z,99714.88
2022-11-21T17:11:42.955Z,99708.31
2022-11-21T17:14:47.519Z,99728.97
2022-11-21T17:17:50.107Z,99706.22
2022-11-21T17:20:53.033Z,99703.28
2022-11-21T17:23:55.927Z,99725.00
2022-11-21T17:27:01.101Z,99709.84
2022-11-21T17:30:04.248Z,99712.16
2022-11-21T17:33:06.942Z,99714.13
2022-11-21T17:36:14.037Z,99719.25
2022-11-21T17:39:18.137Z,99721.38
2022-11-21T17:42:21.061Z,99745.13
2022-11-21T17:45:23.870Z,99739.38
2022-11-21T17:48:26.741Z,99741.94
2022-11-21T17:51:35.025Z,99733.72
2022-11-21T17:54:37.578Z,99737.56
2022-11-21T17:57:40.171Z,99741.13
2022-11-21T18:00:42.603Z,99734.03
2022-11-21T18:03:47.064Z,99752.75
2022-11-21T18:06:49.897Z,99717.50
2022-11-21T18:09:53.068Z,99745.94
2022-11-21T18:12:55.824Z,99753.97
2022-11-21T18:16:04.229Z,99756.25
2022-11-21T18:19:08.533Z,99739.91
2022-11-21T18:22:11.242Z,99752.16
2022-11-21T18:25:13.888Z,99739.91
2022-11-21T18:28:16.350Z,99742.47
2022-11-21T18:31:20.869Z,99737.78
2022-11-21T18:34:23.368Z,99742.00
2022-11-21T18:37:26.078Z,99752.31
2022-11-21T18:40:28.748Z,99751.69
2022-11-21T18:43:31.595Z,99744.06
2022-11-21T18:46:36.432Z,99742.06
2022-11-21T18:49:39.156Z,99723.47
2022-11-21T18:52:46.443Z,99741.00
2022-11-21T18:55:49.595Z,99735.88
2022-11-21T18:58:58.177Z,99736.81
2022-11-21T19:02:01.690Z,99734.50
2022-11-21T19:05:04.708Z,99739.38
2022-11-21T19:08:07.388Z,99731.16
2022-11-21T19:11:11.972Z,99752.19
2022-11-21T19:14:14.757Z,99765.75
2022-11-21T19:17:18.311Z,99747.56
2022-11-21T19:20:21.119Z,99768.28
2022-11-21T19:23:23.782Z,99768.81
2022-11-21T19:26:26.421Z,99755.53
2022-11-21T19:29:30.317Z,99747.56
2022-11-21T19:32:34.219Z,99760.84
2022-11-21T19:35:37.739Z,99756.56
2022-11-21T19:38:40.513Z,99747.34
2022-11-21T19:41:43.631Z,99780.53
2022-11-21T19:44:46.272Z,99755.53
2022-11-21T19:47:50.153Z,99770.81
2022-11-21T19:50:59.263Z,99774.66
2022-11-21T19:54:04.111Z,99775.03
2022-11-21T19:57:12.433Z,99769.06
2022-11-21T20:00:17.260Z,99770.97
2022-11-21T20:03:20.571Z,99772.53
2022-11-21T20:06:32.312Z,99786.03
2022-11-21T20:09:35.031Z,99787.56
2022-11-21T20:12:37.851Z,99780.06
2022-11-21T20:15:40.453Z,99803.00
2022-11-21T20:18:43.020Z,99798.34
2022-11-21T20:21:46.276Z,99799.59
2022-11-21T20:24:51.698Z,99804.81
2022-11-21T20:27:54.696Z,99793.88
2022-11-21T20:31:08.370Z,99804.75
2022-11-21T20:34:13.162Z,99800.50
2022-11-21T20:37:15.923Z,99806.75
2022-11-21T20:40:18.530Z,99805.00
2022-11-21T20:43:21.259Z,99791.19
2022-11-21T20:46:24.298Z,99810.09
2022-11-21T20:49:26.973Z,99812.91
2022-11-21T20:55:53.106Z,99806.59
2022-11-21T20:58:56.868Z,99801.59
2022-11-21T21:01:59.443Z,99806.34
2022-11-21T21:05:02.803Z,99823.72
2022-11-21T21:08:05.396Z,99813.09
2022-11-21T21:11:36.702Z,99811.53
2022-11-21T21:14:38.763Z,99816.50
2022-11-21T21:17:41.205Z,99813.16
2022-11-21T21:21:09.446Z,99822.22
2022-11-21T21:24:07.807Z,99819.00
2022-11-21T21:27:10.540Z,99829.97
2022-11-21T21:30:13.920Z,99834.13
2022-11-21T21:33:16.647Z,99820.47
2022-11-21T21:36:21.338Z,99836.81
2022-11-21T21:39:24.464Z,99828.72
2022-11-21T21:42:27.071Z,99825.84
2022-11-21T21:45:29.481Z,99836.72
2022-11-21T21:48:32.026Z,99831.34
2022-11-21T21:51:36.762Z,99851.06
2022-11-21T21:54:39.508Z,99835.44
2022-11-21T21:57:48.290Z,99843.19
2022-11-21T22:00:54.561Z,99842.56
2022-11-21T22:03:59.100Z,99857.25
2022-11-21T22:07:02.780Z,99839.91
2022-11-21T22:10:06.261Z,99822.47
2022-11-21T22:13:08.926Z,99843.38
2022-11-21T22:16:12.677Z,99841.78
2022-11-21T22:19:15.734Z,99819.19
2022-11-21T22:22:18.286Z,99823.81
2022-11-21T22:25:20.793Z,99842.72
2022-11-21T22:28:24.044Z,99826.06
2022-11-21T22:31:26.402Z,99808.41
2022-11-21T22:34:29.311Z,99814.03
2022-11-21T22:37:31.894Z,99804.19
2022-11-21T22:40:34.471Z,99806.34
2022-11-21T22:43:36.914Z,99815.25
2022-11-21T22:46:39.298Z,99809.56
2022-11-21T22:49:41.926Z,99830.22
2022-11-21T22:52:44.475Z,99820.47
2022-11-21T22:56:02.102Z,99819.06
2022-11-21T22:59:04.741Z,99804.81
2022-11-21T23:02:07.205Z,99813.63
2022-11-21T23:05:09.770Z,99810.03
2022-11-21T23:08:12.159Z,99807.41
2022-11-21T23:11:19.361Z,99806.19
2022-11-21T23:14:21.760Z,99826.97
2022-11-21T23:17:24.165Z,99812.47
2022-11-21T23:20:26.643Z,99806.75
2022-11-21T23:23:29.245Z,99793.38
2022-11-21T23:26:31.695Z,99795.75
2022-11-21T23:29:34.113Z,99810.34
2022-11-21T23:32:36.523Z,99820.78
2022-11-21T23:35:38.908Z,99816.31
2022-11-21T23:38:41.735Z,99792.16
2022-11-21T23:41:44.125Z,99811.06
2022-11-21T23:44:47.681Z,99795.16
2022-11-21T23:47:50.081Z,99806.75
2022-11-21T23:50:52.548Z,99802.03
2022-11-21T23:53:55.088Z,99798.13
2022-11-21T23:56:57.501Z,99813.91
2022-11-21T23:59:59.956Z,99795.38
